createdAt,value
2019-03-12T00:02:01.697Z,1.10
2019-03-12T00:04:31.280Z,1.90
2019-03-12T00:07:00.694Z,1.33
2019-03-12T00:09:30.352Z,3.12
2019-03-12T00:12:01.508Z,3.45
2019-03-12T00:14:32.088Z,4.35
2019-03-12T00:17:01.837Z,1.47
2019-03-12T00:19:31.305Z,4.05
2019-03-12T00:22:00.758Z,0.70
2019-03-12T00:24:30.188Z,2.12
2019-03-12T00:26:59.724Z,0.57
2019-03-12T00:29:29.457Z,1.30
2019-03-12T00:31:58.852Z,1.92
2019-03-12T00:34:28.486Z,1.52
2019-03-12T00:36:58.037Z,2.47
2019-03-12T00:39:27.544Z,1.47
2019-03-12T00:41:57.109Z,1.00
2019-03-12T00:44:26.521Z,1.52
2019-03-12T00:46:56.022Z,1.65
2019-03-12T00:49:25.547Z,2.02
2019-03-12T00:51:55.057Z,1.87
2019-03-12T00:54:24.575Z,1.75
2019-03-12T00:56:54.115Z,1.43
2019-03-12T00:59:23.630Z,2.07
2019-03-12T01:01:53.508Z,1.57
2019-03-12T01:04:23.416Z,2.27
2019-03-12T01:06:54.917Z,1.40
2019-03-12T01:09:24.415Z,3.62
2019-03-12T01:11:53.905Z,1.93
2019-03-12T01:14:23.381Z,1.32
2019-03-12T01:16:52.841Z,1.52
2019-03-12T01:19:22.344Z,1.97
2019-03-12T01:21:52.018Z,1.27
2019-03-12T01:24:21.527Z,1.10
2019-03-12T01:26:50.960Z,1.00
2019-03-12T01:29:20.717Z,2.30
2019-03-12T01:31:50.254Z,2.87
2019-03-12T01:34:19.693Z,1.20
2019-03-12T01:36:49.224Z,1.80
2019-03-12T01:39:18.703Z,2.10
2019-03-12T01:41:48.299Z,1.80
2019-03-12T01:44:17.804Z,7.97
2019-03-12T01:46:47.231Z,4.90
2019-03-12T01:49:16.723Z,5.53
2019-03-12T01:51:46.224Z,5.62
2019-03-12T01:54:16.082Z,5.20
2019-03-12T01:56:46.095Z,1.92
2019-03-12T01:59:15.872Z,4.72
2019-03-12T02:01:45.376Z,3.65
2019-03-12T02:04:14.799Z,3.67
2019-03-12T02:06:44.376Z,4.53
2019-03-12T02:09:13.858Z,5.30
2019-03-12T02:11:43.487Z,5.00
2019-03-12T02:14:24.242Z,3.17
2019-03-12T02:16:53.780Z,2.75
2019-03-12T02:19:23.341Z,1.90
2019-03-12T02:21:52.818Z,3.00
2019-03-12T02:24:22.409Z,2.62
2019-03-12T02:26:51.850Z,2.12
2019-03-12T02:29:21.426Z,2.65
2019-03-12T02:31:51.436Z,2.33
2019-03-12T02:34:21.233Z,3.02
2019-03-12T02:36:50.779Z,2.47
2019-03-12T02:39:20.475Z,2.90
2019-03-12T02:41:50.065Z,3.53
2019-03-12T02:44:19.580Z,3.92
2019-03-12T02:46:49.196Z,2.70
2019-03-12T02:49:18.744Z,5.10
2019-03-12T02:51:48.186Z,2.00
2019-03-12T02:54:18.760Z,2.35
2019-03-12T02:56:48.265Z,4.55
2019-03-12T02:59:17.714Z,3.27
2019-03-12T03:01:47.177Z,5.37
2019-03-12T03:04:17.064Z,2.62
2019-03-12T03:06:51.466Z,5.00
2019-03-12T03:09:22.084Z,3.12
2019-03-12T03:11:52.346Z,4.35
2019-03-12T03:14:39.529Z,15.88
2019-03-12T03:17:10.566Z,15.50
2019-03-12T03:19:41.763Z,12.17
2019-03-12T03:25:23.169Z,8.50
2019-03-12T03:27:53.211Z,13.30
2019-03-12T03:30:26.399Z,11.48
2019-03-12T03:35:25.202Z,10.17
2019-03-12T03:37:54.838Z,8.60
2019-03-12T03:40:24.615Z,5.90
2019-03-12T03:43:02.006Z,5.80
2019-03-12T03:45:31.685Z,4.50
2019-03-12T03:48:01.437Z,6.62
2019-03-12T03:50:31.241Z,3.40
2019-03-12T03:53:00.905Z,4.00
2019-03-12T03:55:30.512Z,5.95
2019-03-12T03:58:02.315Z,5.45
2019-03-12T04:00:31.929Z,6.33
2019-03-12T04:03:01.462Z,7.72
2019-03-12T04:05:31.266Z,7.10
2019-03-12T04:08:01.076Z,9.78
2019-03-12T04:10:30.734Z,8.75
2019-03-12T04:13:00.437Z,7.25
2019-03-12T04:15:30.291Z,5.22
2019-03-12T04:18:00.017Z,6.33
2019-03-12T04:20:30.156Z,5.45
2019-03-12T04:23:00.009Z,5.75
2019-03-12T04:25:29.770Z,5.80
2019-03-12T04:27:59.637Z,5.97
2019-03-12T04:30:29.296Z,7.17
2019-03-12T04:32:58.968Z,5.53
2019-03-12T04:35:33.341Z,6.07
2019-03-12T04:38:03.121Z,10.78
2019-03-12T04:40:33.016Z,9.43
2019-03-12T04:43:02.692Z,8.05
2019-03-12T04:45:32.382Z,6.40
2019-03-12T04:48:02.040Z,7.37
2019-03-12T04:50:31.745Z,9.67
2019-03-12T04:53:01.537Z,9.88
2019-03-12T04:55:32.399Z,9.00
2019-03-12T04:58:02.055Z,8.17
2019-03-12T05:00:31.726Z,12.50
2019-03-12T05:05:31.247Z,12.10
2019-03-12T05:08:00.935Z,12.33
2019-03-12T05:10:40.220Z,12.83
2019-03-12T05:13:11.428Z,14.98
2019-03-12T05:15:42.438Z,10.08
2019-03-12T05:18:39.078Z,15.30
2019-03-12T05:21:08.733Z,13.55
2019-03-12T05:23:38.920Z,10.45
2019-03-12T05:26:08.753Z,14.40
2019-03-12T05:28:38.385Z,10.20
2019-03-12T05:31:07.855Z,11.33
2019-03-12T05:33:37.589Z,15.28
2019-03-12T05:36:07.188Z,11.87
2019-03-12T05:38:36.627Z,13.90
2019-03-12T05:41:06.157Z,15.10
2019-03-12T05:43:35.964Z,15.90
2019-03-12T05:46:05.360Z,18.50
2019-03-12T05:48:34.892Z,18.93
2019-03-12T05:51:04.586Z,15.38
2019-03-12T05:53:48.654Z,18.63
2019-03-12T05:56:18.216Z,20.15
2019-03-12T05:58:48.005Z,24.72
2019-03-12T06:01:17.634Z,20.00
2019-03-12T06:03:47.232Z,18.62
2019-03-12T06:06:16.743Z,21.80
2019-03-12T06:08:46.352Z,19.87
2019-03-12T06:11:15.973Z,13.97
2019-03-12T06:13:45.398Z,14.50
2019-03-12T06:16:15.961Z,17.42
2019-03-12T06:18:45.481Z,72.82
2019-03-12T06:21:15.016Z,83.05
2019-03-12T06:23:44.518Z,52.20
2019-03-12T06:26:14.057Z,39.53
2019-03-12T06:28:43.676Z,37.57
2019-03-12T06:31:18.014Z,50.23
2019-03-12T06:33:58.552Z,57.83
2019-03-12T06:36:32.484Z,50.85
2019-03-12T06:39:03.623Z,18.80
2019-03-12T06:41:42.023Z,11.70
2019-03-12T06:44:29.678Z,13.62
2019-03-12T06:47:19.041Z,8.45
2019-03-12T06:49:50.145Z,12.47
2019-03-12T06:52:25.154Z,6.55
2019-03-12T06:55:12.523Z,12.20
2019-03-12T06:58:07.018Z,14.13
2019-03-12T07:00:40.839Z,9.80
2019-03-12T07:03:17.695Z,9.20
2019-03-12T07:06:07.532Z,9.50
2019-03-12T07:08:47.774Z,24.00
2019-03-12T07:11:35.229Z,11.90
2019-03-12T07:14:10.493Z,8.73
2019-03-12T07:16:52.681Z,10.70
2019-03-12T07:19:27.209Z,8.77
2019-03-12T07:22:16.599Z,11.43
2019-03-12T07:25:03.533Z,10.32
2019-03-12T07:27:46.144Z,11.65
2019-03-12T07:30:34.480Z,8.40
2019-03-12T07:33:12.222Z,10.13
2019-03-12T07:35:43.596Z,11.15
2019-03-12T07:38:14.845Z,9.07
2019-03-12T07:40:58.027Z,17.30
2019-03-12T07:43:45.373Z,13.27
2019-03-12T07:46:16.645Z,12.45
2019-03-12T07:49:03.836Z,5.27
2019-03-12T07:51:41.651Z,10.72
2019-03-12T07:54:18.904Z,8.83
2019-03-12T07:57:06.393Z,7.27
2019-03-12T07:59:43.684Z,9.35
2019-03-12T08:02:31.561Z,1.92
2019-03-12T08:05:18.809Z,2.80
2019-03-12T08:07:56.381Z,8.78
2019-03-12T08:10:33.593Z,5.90
2019-03-12T08:13:11.395Z,8.67
2019-03-12T08:15:42.868Z,2.05
2019-03-12T08:18:17.668Z,1.40
2019-03-12T08:20:52.542Z,1.50
2019-03-12T08:23:23.895Z,2.66
2019-03-12T08:25:57.264Z,3.53
2019-03-12T08:28:31.284Z,1.30
2019-03-12T08:31:18.939Z,2.37
2019-03-12T08:33:51.261Z,1.90
2019-03-12T08:36:37.213Z,0.83
2019-03-12T08:39:14.631Z,1.27
2019-03-12T08:41:54.691Z,2.62
2019-03-12T08:44:31.857Z,1.87
2019-03-12T08:47:05.767Z,1.27
2019-03-12T08:49:39.763Z,1.67
2019-03-12T08:52:29.235Z,0.95
2019-03-12T08:55:12.336Z,1.97
2019-03-12T08:57:46.287Z,0.60
2019-03-12T09:00:24.259Z,1.32
2019-03-12T09:03:11.435Z,1.77
2019-03-12T09:05:42.743Z,0.30
2019-03-12T09:08:16.113Z,1.17
2019-03-12T09:10:48.471Z,0.77
2019-03-12T09:13:19.858Z,0.42
2019-03-12T09:16:03.259Z,0.77
2019-03-12T09:18:52.461Z,0.30
2019-03-12T09:21:26.162Z,0.30
2019-03-12T09:24:00.241Z,0.30
2019-03-12T09:26:55.153Z,0.30
2019-03-12T09:29:29.211Z,0.30
2019-03-12T09:32:00.359Z,0.68
2019-03-12T09:34:40.560Z,3.20
2019-03-12T09:37:29.374Z,0.30
2019-03-12T09:43:14.486Z,0.20
2019-03-12T09:49:27.741Z,0.40
2019-03-12T09:52:13.674Z,0.30
2019-03-12T09:54:45.062Z,2.60
2019-03-12T09:57:25.050Z,0.30
2019-03-12T10:00:15.603Z,0.30
2019-03-12T10:02:50.202Z,0.30
2019-03-12T10:05:21.713Z,0.70
2019-03-12T10:08:05.190Z,0.55
2019-03-12T10:10:45.162Z,0.30
2019-03-12T10:13:25.278Z,0.30
2019-03-12T10:16:12.643Z,1.20
2019-03-12T10:19:01.767Z,3.52
2019-03-12T10:21:47.879Z,0.45
2019-03-12T10:24:38.359Z,0.80
2019-03-12T10:27:09.604Z,0.40
2019-03-12T10:29:46.928Z,0.50
2019-03-12T10:32:18.158Z,0.75
2019-03-12T10:34:57.159Z,1.07
2019-03-12T10:37:31.214Z,0.93
2019-03-12T10:40:21.457Z,0.90
2019-03-12T10:43:06.622Z,0.50
2019-03-12T10:45:40.600Z,1.27
2019-03-12T10:48:11.365Z,0.93
2019-03-12T10:50:40.998Z,0.47
2019-03-12T10:53:10.839Z,1.57
2019-03-12T10:55:40.796Z,0.53
2019-03-12T10:58:10.665Z,0.53
2019-03-12T11:00:55.529Z,2.37
2019-03-12T11:03:25.387Z,0.65
2019-03-12T11:05:56.366Z,0.30
2019-03-12T11:08:48.013Z,0.80
2019-03-12T11:11:20.052Z,0.57
2019-03-12T11:13:50.883Z,0.35
2019-03-12T11:16:22.792Z,0.80
2019-03-12T11:18:52.560Z,0.40
2019-03-12T11:21:22.643Z,2.65
2019-03-12T11:24:01.198Z,0.42
2019-03-12T11:26:30.774Z,2.70
2019-03-12T11:29:01.292Z,1.22
2019-03-12T11:31:30.991Z,0.53
2019-03-12T11:34:00.630Z,0.50
2019-03-12T11:36:31.446Z,0.50
2019-03-12T11:39:01.246Z,0.82
2019-03-12T11:41:32.577Z,0.27
2019-03-12T11:44:02.213Z,0.40
2019-03-12T11:46:41.367Z,1.83
2019-03-12T11:49:03.581Z,0.40
2019-03-12T11:51:34.262Z,0.30
2019-03-12T11:54:03.923Z,0.97
2019-03-12T11:56:33.403Z,0.40
2019-03-12T11:59:02.966Z,0.40
2019-03-12T12:01:32.562Z,0.40
2019-03-12T12:04:02.182Z,0.30
2019-03-12T12:06:31.822Z,0.80
2019-03-12T12:09:01.668Z,1.38
2019-03-12T12:11:33.693Z,0.40
2019-03-12T12:14:03.125Z,0.85
2019-03-12T12:16:32.720Z,0.53
2019-03-12T12:19:02.182Z,0.30
2019-03-12T12:21:31.697Z,2.22
2019-03-12T12:24:01.226Z,1.00
2019-03-12T12:26:31.845Z,0.50
2019-03-12T12:29:01.413Z,0.40
2019-03-12T12:31:30.903Z,1.98
2019-03-12T12:34:00.780Z,3.62
2019-03-12T12:36:31.262Z,0.75
2019-03-12T12:39:01.580Z,1.24
2019-03-12T12:41:37.640Z,1.30
2019-03-12T12:44:07.358Z,2.46
2019-03-12T12:46:36.908Z,0.30
2019-03-12T12:49:06.450Z,1.52
2019-03-12T12:51:37.946Z,0.40
2019-03-12T12:56:38.075Z,0.62
2019-03-12T12:59:07.718Z,0.75
2019-03-12T13:01:37.272Z,0.65
2019-03-12T13:04:06.965Z,0.30
2019-03-12T13:06:36.578Z,0.40
2019-03-12T13:09:06.635Z,0.62
2019-03-12T13:11:37.844Z,0.33
2019-03-12T13:14:07.543Z,0.55
2019-03-12T13:16:38.325Z,0.40
2019-03-12T13:19:08.704Z,1.95
2019-03-12T13:21:39.021Z,4.14
2019-03-12T13:24:09.141Z,0.30
2019-03-12T13:26:38.657Z,1.90
2019-03-12T13:29:08.203Z,3.20
2019-03-12T13:31:37.816Z,0.53
2019-03-12T13:34:07.354Z,1.05
2019-03-12T13:36:37.459Z,0.47
2019-03-12T13:39:07.787Z,0.98
2019-03-12T13:41:39.009Z,1.65
2019-03-12T13:44:08.673Z,0.90
2019-03-12T13:46:38.241Z,0.82
2019-03-12T13:49:08.002Z,1.57
2019-03-12T13:51:50.164Z,0.62
2019-03-12T14:28:45.630Z,0.57
2019-03-12T14:31:17.178Z,0.62
2019-03-12T14:33:50.653Z,1.50
2019-03-12T14:36:24.074Z,0.42
2019-03-12T14:38:57.385Z,0.63
2019-03-12T14:41:28.341Z,0.83
2019-03-12T14:43:58.513Z,1.10
2019-03-12T14:46:28.624Z,2.52
2019-03-12T14:48:58.339Z,3.53
2019-03-12T14:51:44.270Z,1.12
2019-03-12T14:54:14.200Z,0.72
2019-03-12T14:56:44.207Z,1.20
2019-03-12T14:59:14.119Z,0.60
2019-03-12T15:01:44.394Z,0.80
2019-03-12T15:04:15.184Z,1.87
2019-03-12T15:06:56.751Z,1.77
2019-03-12T15:09:26.492Z,0.85
2019-03-12T15:11:56.395Z,3.22
2019-03-12T15:14:26.591Z,1.10
2019-03-12T15:16:57.143Z,2.90
2019-03-12T15:19:27.317Z,0.60
2019-03-12T15:21:57.770Z,3.35
2019-03-12T15:24:30.799Z,7.37
2019-03-12T15:27:07.497Z,1.30
2019-03-12T15:38:37.967Z,1.87
2019-03-12T15:41:08.812Z,0.78
2019-03-12T15:43:39.076Z,1.72
2019-03-12T15:46:14.047Z,1.75
2019-03-12T15:48:43.875Z,0.77
2019-03-12T15:51:14.224Z,1.15
2019-03-12T15:53:44.371Z,1.82
2019-03-12T15:56:18.640Z,1.15
2019-03-12T15:58:49.623Z,2.52
2019-03-12T16:01:19.492Z,4.40
2019-03-12T16:03:52.041Z,0.60
2019-03-12T16:06:26.353Z,1.07
2019-03-12T16:08:55.495Z,0.77
2019-03-12T16:11:31.521Z,3.67
2019-03-12T16:17:34.815Z,2.90
2019-03-12T16:20:20.926Z,9.78
2019-03-12T16:26:39.520Z,3.73
2019-03-12T16:29:11.935Z,3.80
2019-03-12T16:31:44.475Z,5.62
2019-03-12T16:34:48.380Z,9.15
2019-03-12T16:43:31.053Z,5.92
2019-03-12T16:46:00.835Z,3.25
2019-03-12T16:48:30.507Z,4.73
2019-03-12T16:51:02.598Z,8.98
2019-03-12T16:53:32.271Z,7.22
2019-03-12T16:56:05.246Z,12.53
2019-03-12T16:58:34.993Z,6.27
2019-03-12T17:01:04.891Z,5.67
2019-03-12T17:03:36.211Z,4.30
2019-03-12T17:06:08.329Z,12.57
2019-03-12T17:08:38.113Z,24.77
2019-03-12T17:11:08.049Z,15.35
2019-03-12T17:13:37.793Z,7.92
2019-03-12T17:16:07.702Z,10.48
2019-03-12T17:18:38.035Z,6.83
2019-03-12T17:21:07.971Z,9.50
2019-03-12T17:23:38.100Z,7.80
2019-03-12T17:26:08.312Z,12.65
2019-03-12T17:28:44.029Z,11.93
2019-03-12T17:31:15.352Z,5.58
2019-03-12T17:33:45.279Z,9.25
2019-03-12T17:36:15.277Z,11.95
2019-03-12T17:38:46.965Z,12.47
2019-03-12T17:41:17.881Z,84.45
2019-03-12T17:43:48.086Z,39.00
2019-03-12T17:46:18.361Z,17.73
2019-03-12T17:48:48.335Z,18.75
2019-03-12T17:51:18.302Z,19.25
2019-03-12T17:53:48.155Z,20.00
2019-03-12T17:56:18.042Z,16.77
2019-03-12T17:58:47.967Z,16.25
2019-03-12T18:01:17.935Z,18.12
2019-03-12T18:03:47.892Z,14.90
2019-03-12T18:06:18.125Z,13.70
2019-03-12T18:08:48.096Z,16.77
2019-03-12T18:11:30.758Z,14.07
2019-03-12T18:14:06.939Z,15.88
2019-03-12T18:16:41.206Z,17.67
2019-03-12T18:22:08.841Z,15.32
2019-03-12T18:28:03.625Z,14.00
2019-03-12T18:30:45.541Z,15.05
2019-03-12T18:33:28.094Z,17.00
2019-03-12T18:36:22.550Z,23.40
2019-03-12T18:38:55.625Z,28.10
2019-03-12T18:41:28.555Z,43.98
2019-03-12T18:44:04.074Z,44.13
2019-03-12T18:46:44.407Z,47.83
2019-03-12T18:49:16.920Z,35.13
2019-03-12T18:51:47.739Z,40.78
2019-03-12T18:54:20.054Z,28.73
2019-03-12T18:56:53.392Z,32.17
2019-03-12T18:59:32.155Z,22.82
2019-03-12T19:02:26.844Z,22.94
2019-03-12T19:05:17.723Z,21.10
2019-03-12T19:07:54.685Z,23.20
2019-03-12T19:10:34.929Z,17.92
2019-03-12T19:13:08.010Z,16.40
2019-03-12T19:15:37.665Z,19.07
2019-03-12T19:18:07.241Z,17.42
2019-03-12T19:20:37.035Z,17.00
2019-03-12T19:23:06.924Z,22.42
2019-03-12T19:25:45.630Z,16.96
2019-03-12T19:28:15.936Z,16.23
2019-03-12T19:30:49.327Z,18.97
2019-03-12T19:33:28.998Z,17.25
2019-03-12T19:36:05.317Z,14.38
2019-03-12T19:38:38.615Z,14.03
2019-03-12T19:41:26.459Z,17.60
2019-03-12T19:44:18.785Z,15.68
2019-03-12T19:46:50.333Z,15.83
2019-03-12T19:49:25.909Z,17.70
2019-03-12T19:52:16.872Z,19.87
2019-03-12T19:54:51.643Z,19.75
2019-03-12T19:57:28.313Z,18.15
2019-03-12T20:00:30.608Z,16.00
2019-03-12T20:03:15.825Z,16.87
2019-03-12T20:05:56.990Z,18.67
2019-03-12T20:08:41.714Z,14.70
2019-03-12T20:25:00.023Z,17.93
2019-03-12T20:31:09.383Z,18.22
2019-03-12T20:37:52.027Z,18.15
2019-03-12T20:40:37.915Z,15.90
2019-03-12T20:43:34.543Z,14.43
2019-03-12T20:50:17.422Z,16.80
2019-03-12T20:52:54.819Z,25.30
2019-03-12T20:55:58.461Z,17.57
2019-03-12T20:59:04.106Z,16.05
2019-03-12T21:01:54.016Z,13.35
2019-03-12T21:04:57.106Z,13.83
2019-03-12T21:11:34.802Z,13.72
2019-03-12T21:14:24.211Z,15.88
2019-03-12T21:20:16.909Z,12.40
2019-03-12T21:23:16.358Z,20.95
2019-03-12T21:26:33.122Z,13.48
2019-03-12T21:29:22.705Z,13.07
2019-03-12T21:31:52.698Z,15.50
2019-03-12T21:34:22.909Z,11.80
2019-03-12T21:36:53.323Z,13.90
2019-03-12T21:39:23.550Z,12.37
2019-03-12T21:41:53.658Z,9.85
2019-03-12T21:44:23.757Z,11.78
2019-03-12T21:46:57.560Z,10.53
2019-03-12T21:49:27.517Z,11.33
2019-03-12T21:51:57.811Z,9.65
2019-03-12T21:54:29.976Z,10.35
2019-03-12T21:57:00.441Z,14.07
2019-03-12T21:59:30.577Z,9.13
2019-03-12T22:02:08.356Z,10.00
2019-03-12T22:04:42.377Z,10.05
2019-03-12T22:07:20.247Z,12.63
2019-03-12T22:40:16.866Z,9.90
2019-03-12T22:58:54.191Z,9.48
2019-03-12T23:01:42.944Z,7.80
2019-03-12T23:04:30.698Z,10.03
2019-03-12T23:07:30.108Z,12.97
2019-03-12T23:10:01.806Z,8.95
2019-03-12T23:12:42.932Z,10.68
2019-03-12T23:15:31.811Z,9.70
2019-03-12T23:18:17.931Z,9.90
2019-03-12T23:20:49.897Z,7.40
2019-03-12T23:26:18.088Z,8.78
2019-03-12T23:29:01.643Z,9.13
2019-03-12T23:31:32.545Z,9.70
2019-03-12T23:34:07.499Z,11.37
2019-03-12T23:36:39.628Z,8.43
2019-03-12T23:39:20.297Z,8.23
2019-03-12T23:41:54.791Z,11.88
2019-03-12T23:44:44.664Z,8.63
2019-03-12T23:47:20.204Z,8.63
2019-03-12T23:49:55.481Z,10.58
2019-03-12T23:52:31.607Z,11.17
2019-03-12T23:58:05.562Z,10.00
